29TH JULY, 2016

 

METAR SMJP 290500Z VRB01KT CAVOK 24/23 Q1012 NOSIG=